Open Full Screen Window  High Contrast Mode
August 16, 2017 3:59 PM CDT
Weather Information
Wind Direction
  ---
Wind Speed
  00 kt (0 mph)
Wind Gust
  00 kt (0 mph)
Altimeter
29.98 in
Visibility
7 SM
Temperature
31° C
88° F
Dewpoint
19° C
66° F
Humidity
49%
Sky Condition
Scattered @ 8,000 ft
Scattered @ 6,500 ft
Scattered @ 5,500 ft
VFR

METAR KAXV 162059Z AUTO 00000KT 7SM SCT055 SCT065 SCT080 31/19 A2998 RMK AO2

*Background is not an actual portrayal of the airport.